Time;durP1;ratioP1;P1;durP2;ratioP2;P2;SDS_P1;SDS_P2;PMS_P1;PMS_P2;Temp;Humidity;BMP_temperature;BMP_pressure;BME280_temperature;BME280_humidity;BME280_pressure;Samples;Min_cycle;Max_cycle;Signal;HPM_P1;HPM_P2
2023/10/14 00:01:11;;;;;;;3.17;0.40;;;14.30;99.90;;;;;;4938530;29;20448;-83
2023/10/14 00:03:42;;;;;;;8.27;0.55;;;14.30;99.90;;;;;;4955170;29;20559;-83
2023/10/14 00:06:11;;;;;;;3.70;0.35;;;14.30;99.90;;;;;;4937571;28;20031;-83
2023/10/14 00:08:54;;;;;;;4.82;0.55;;;14.40;99.90;;;;;;4938192;29;20515;-80
2023/10/14 00:11:21;;;;;;;6.53;0.60;;;14.30;99.90;;;;;;4938150;29;20171;-80
2023/10/14 00:13:52;;;;;;;1.27;0.40;;;14.30;99.90;;;;;;4937593;29;20032;-81
2023/10/14 00:19:03;;;;;;;3.70;0.40;;;14.30;99.90;;;;;;4955565;29;20043;-81
2023/10/14 00:21:28;;;;;;;1.63;0.30;;;14.30;99.90;;;;;;4955881;29;20055;-80
2023/10/14 00:23:57;;;;;;;2.63;0.40;;;14.30;99.90;;;;;;4955121;29;20043;-80
2023/10/14 00:26:24;;;;;;;7.38;0.55;;;14.30;99.90;;;;;;4955087;29;20039;-80
2023/10/14 00:28:54;;;;;;;5.28;0.40;;;14.30;99.90;;;;;;4955299;29;20043;-79
2023/10/14 00:31:23;;;;;;;2.28;0.30;;;14.30;99.90;;;;;;4954632;29;20090;-79
2023/10/14 00:33:52;;;;;;;2.88;0.57;;;14.30;99.90;;;;;;4954665;29;20047;-82
2023/10/14 00:36:22;;;;;;;3.58;0.45;;;14.20;99.90;;;;;;4937879;29;20035;-81
2023/10/14 00:38:55;;;;;;;2.47;0.47;;;14.20;99.90;;;;;;4954879;29;20054;-82
2023/10/14 00:41:28;;;;;;;2.60;0.50;;;14.20;99.90;;;;;;4954931;29;20087;-80
2023/10/14 00:43:59;;;;;;;4.45;0.88;;;14.20;99.90;;;;;;4954745;29;20032;-82
2023/10/14 00:46:31;;;;;;;5.20;0.80;;;14.30;99.90;;;;;;4954777;29;20050;-83
2023/10/14 00:49:04;;;;;;;4.90;0.60;;;14.30;99.90;;;;;;4955003;29;20595;-83
2023/10/14 00:51:33;;;;;;;5.70;0.90;;;14.20;99.90;;;;;;4954689;29;20035;-82
2023/10/14 00:54:03;;;;;;;5.50;0.70;;;14.30;99.90;;;;;;4937423;29;20035;-80
2023/10/14 00:56:31;;;;;;;6.95;1.00;;;14.20;99.90;;;;;;4954955;29;20040;-81
2023/10/14 00:59:04;;;;;;;7.90;1.70;;;14.20;99.90;;;;;;4937395;29;20170;-79
2023/10/14 01:01:31;;;;;;;4.68;1.63;;;14.20;99.90;;;;;;4954540;29;20042;-80
2023/10/14 01:04:17;;;;;;;6.97;1.25;;;14.10;99.90;;;;;;4954591;29;20032;-81
2023/10/14 01:14:45;;;;;;;9.18;1.67;;;13.50;99.90;;;;;;4954620;29;20070;-80
2023/10/14 01:17:26;;;;;;;7.20;1.40;;;13.50;99.90;;;;;;4953961;29;20074;-81
2023/10/14 01:19:55;;;;;;;12.25;1.38;;;13.50;99.90;;;;;;4957106;28;20451;-80
2023/10/14 01:22:21;;;;;;;7.05;1.23;;;13.40;99.90;;;;;;4958329;29;20095;-81
2023/10/14 01:24:48;;;;;;;6.07;1.50;;;13.40;99.90;;;;;;4941049;29;20043;-81
2023/10/14 01:27:16;;;;;;;6.75;1.45;;;13.40;99.90;;;;;;4956425;29;20093;-82
2023/10/14 01:29:43;;;;;;;8.93;1.52;;;13.40;99.90;;;;;;4940939;29;20047;-80
2023/10/14 01:32:24;;;;;;;11.65;1.73;;;13.40;99.90;;;;;;4957918;29;20155;-80
2023/10/14 01:34:58;;;;;;;9.73;1.50;;;13.30;99.90;;;;;;4957926;29;20047;-80
2023/10/14 01:37:26;;;;;;;;;;;13.30;99.90;;;;;;4958437;29;20031;-80
2023/10/14 01:40:08;;;;;;;8.15;1.48;;;13.20;99.90;;;;;;4957846;29;20347;-80
2023/10/14 01:42:33;;;;;;;7.00;1.30;;;13.20;99.90;;;;;;4957875;29;20034;-80
2023/10/14 01:44:59;;;;;;;13.05;1.98;;;13.20;99.90;;;;;;4958115;29;20027;-80
2023/10/14 01:47:25;;;;;;;9.68;1.95;;;13.20;99.90;;;;;;4957530;29;20046;-80
2023/10/14 01:49:52;;;;;;;9.05;2.15;;;13.20;99.90;;;;;;4957622;29;20168;-80
2023/10/14 01:52:19;;;;;;;13.88;2.50;;;13.10;99.90;;;;;;4940557;29;20035;-77
2023/10/14 01:54:47;;;;;;;19.65;3.03;;;13.10;99.90;;;;;;4957832;29;20118;-80
2023/10/14 01:57:15;;;;;;;12.90;2.33;;;13.00;99.90;;;;;;4957675;29;20035;-80
2023/10/14 01:59:42;;;;;;;8.45;2.20;;;13.00;99.90;;;;;;4957682;29;20086;-80
2023/10/14 02:02:09;;;;;;;13.35;2.50;;;13.00;99.90;;;;;;4960689;29;20043;-80
2023/10/14 02:04:36;;;;;;;9.75;2.10;;;13.00;99.90;;;;;;4961186;29;20384;-80
2023/10/14 02:07:21;;;;;;;11.13;1.83;;;13.00;99.90;;;;;;4959347;29;20037;-80
2023/10/14 02:09:48;;;;;;;11.25;3.03;;;13.00;99.90;;;;;;4957383;29;20027;-80
2023/10/14 02:12:15;;;;;;;13.52;2.55;;;12.90;99.90;;;;;;4957183;29;20038;-80
2023/10/14 02:14:54;;;;;;;15.07;3.25;;;12.90;99.90;;;;;;4939793;29;20034;-81
2023/10/14 02:17:23;;;;;;;14.52;3.05;;;12.90;99.90;;;;;;4956925;29;20558;-80
2023/10/14 02:19:51;;;;;;;13.10;2.20;;;12.90;99.90;;;;;;4956877;29;20130;-80
2023/10/14 02:22:21;;;;;;;12.85;2.88;;;12.90;99.90;;;;;;4955876;29;20094;-81
2023/10/14 02:24:48;;;;;;;12.35;2.25;;;12.90;99.90;;;;;;4955869;29;20464;-79
2023/10/14 02:27:14;;;;;;;12.55;2.85;;;12.90;99.90;;;;;;4957079;29;20054;-80
2023/10/14 02:29:44;;;;;;;9.10;2.22;;;12.90;99.90;;;;;;4956826;28;20047;-81
2023/10/14 02:32:13;;;;;;;11.85;1.90;;;12.90;99.90;;;;;;4956692;29;20436;-80
2023/10/14 02:34:45;;;;;;;8.57;1.92;;;12.90;99.90;;;;;;4956875;29;20530;-79
2023/10/14 02:37:15;;;;;;;15.10;2.45;;;12.80;99.90;;;;;;4957205;29;20110;-78
2023/10/14 02:39:44;;;;;;;9.93;2.50;;;12.80;99.90;;;;;;4956761;29;20503;-79
2023/10/14 02:42:09;;;;;;;11.82;2.60;;;12.80;99.90;;;;;;4957297;29;20106;-80
2023/10/14 02:44:47;;;;;;;15.98;2.00;;;12.70;99.90;;;;;;4956323;29;20135;-79
2023/10/14 02:47:13;;;;;;;10.27;2.58;;;12.60;99.90;;;;;;4956863;29;20027;-81
2023/10/14 02:49:40;;;;;;;10.13;2.50;;;12.60;99.90;;;;;;4939755;29;20051;-78
2023/10/14 02:52:11;;;;;;;10.93;2.20;;;12.50;99.90;;;;;;4956886;29;20031;-79
2023/10/14 02:54:44;;;;;;;10.05;3.00;;;12.50;99.90;;;;;;4956652;29;20035;-82
2023/10/14 02:57:14;;;;;;;13.52;2.60;;;12.40;99.90;;;;;;4939272;29;20032;-81
2023/10/14 03:02:14;;;;;;;15.20;2.47;;;12.40;99.90;;;;;;4956490;29;20024;-81
2023/10/14 03:10:35;;;;;;;9.57;1.77;;;12.30;99.90;;;;;;4956945;29;20050;-83
2023/10/14 03:12:59;;;;;;;13.05;1.80;;;12.20;99.90;;;;;;4955813;29;20062;-81
2023/10/14 03:15:27;;;;;;;9.68;1.40;;;12.10;99.90;;;;;;4938698;29;20077;-82
2023/10/14 03:17:58;;;;;;;8.75;2.25;;;12.10;99.90;;;;;;4955910;29;20488;-83
2023/10/14 03:22:59;;;;;;;12.48;1.85;;;12.00;99.90;;;;;;4956300;29;20043;-83
2023/10/14 03:25:27;;;;;;;11.52;1.70;;;12.00;99.90;;;;;;4954571;29;20450;-82
2023/10/14 03:28:15;;;;;;;10.32;1.80;;;12.00;99.90;;;;;;4938547;29;20051;-83
2023/10/14 03:30:46;;;;;;;12.13;1.92;;;11.90;99.90;;;;;;4955419;29;20043;-82
2023/10/14 03:33:14;;;;;;;11.75;2.03;;;11.90;99.90;;;;;;4956013;29;20066;-82
2023/10/14 03:35:42;;;;;;;10.90;1.38;;;11.90;99.90;;;;;;4955877;29;20070;-81
2023/10/14 03:38:22;;;;;;;8.93;1.60;;;11.80;99.90;;;;;;4955758;29;20130;-81
2023/10/14 03:43:16;;;;;;;13.98;1.73;;;11.80;99.90;;;;;;4955160;28;20487;-82
2023/10/14 03:45:53;;;;;;;9.50;1.45;;;11.80;99.90;;;;;;4955831;29;20066;-81
2023/10/14 03:48:28;;;;;;;11.48;2.03;;;11.80;99.90;;;;;;4955726;29;20531;-81
2023/10/14 03:51:02;;;;;;;11.90;1.65;;;11.70;99.90;;;;;;4955686;29;20046;-82
2023/10/14 03:53:32;;;;;;;16.50;2.20;;;11.70;99.90;;;;;;4955194;29;20028;-83
2023/10/14 03:56:01;;;;;;;13.80;2.40;;;11.70;99.90;;;;;;4955713;29;20027;-82
2023/10/14 03:58:36;;;;;;;15.00;1.90;;;11.60;99.90;;;;;;4955315;29;20032;-81
2023/10/14 04:01:02;;;;;;;10.45;1.98;;;11.60;99.90;;;;;;4955507;29;20043;-82
2023/10/14 04:03:40;;;;;;;9.68;1.40;;;11.50;99.90;;;;;;4955656;29;20034;-81
2023/10/14 04:06:09;;;;;;;11.70;1.58;;;11.50;99.90;;;;;;4955550;29;20039;-82
2023/10/14 04:08:46;;;;;;;12.23;1.50;;;11.50;99.90;;;;;;4953979;29;20035;-83
2023/10/14 04:11:15;;;;;;;8.13;1.35;;;11.50;99.90;;;;;;4955221;29;20480;-81
2023/10/14 04:14:04;;;;;;;11.55;1.95;;;11.50;99.90;;;;;;4955030;29;20118;-82
2023/10/14 04:19:27;;;;;;;16.33;1.80;;;11.50;99.90;;;;;;4955345;29;20059;-81
2023/10/14 04:21:54;;;;;;;11.88;1.50;;;11.50;99.90;;;;;;4938061;29;20028;-82
2023/10/14 04:26:48;;;;;;;10.15;1.60;;;11.40;99.90;;;;;;4954618;29;20110;-80
2023/10/14 04:29:34;;;;;;;11.52;1.67;;;11.40;99.90;;;;;;4955209;29;20121;-82
2023/10/14 04:32:13;;;;;;;19.48;1.90;;;11.40;99.90;;;;;;4955742;29;20031;-82
2023/10/14 04:34:46;;;;;;;19.98;2.53;;;11.40;99.90;;;;;;4955052;29;20038;-82
2023/10/14 04:37:20;;;;;;;13.32;1.50;;;11.30;99.90;;;;;;4937727;29;20522;-82
2023/10/14 04:39:45;;;;;;;11.75;1.60;;;11.30;99.90;;;;;;4954734;29;20043;-83
2023/10/14 04:44:59;;;;;;;9.07;1.42;;;11.20;99.90;;;;;;4955546;29;20046;-82
2023/10/14 04:47:37;;;;;;;10.98;2.70;;;11.20;99.90;;;;;;4937676;29;20038;-81
2023/10/14 04:50:10;;;;;;;15.10;2.05;;;11.20;99.90;;;;;;4954738;29;20507;-82
2023/10/14 04:52:38;;;;;;;15.33;2.43;;;11.20;99.90;;;;;;4938035;28;20035;-83
2023/10/14 04:55:46;;;;;;;16.55;2.92;;;11.20;99.90;;;;;;4962536;28;20284;-81
2023/10/14 04:58:13;;;;;;;12.85;2.88;;;11.10;99.90;;;;;;4972405;28;20035;-81
2023/10/14 05:00:43;;;;;;;17.90;2.85;;;11.10;99.90;;;;;;4977962;28;20515;-84
2023/10/14 05:03:13;;;;;;;12.35;1.98;;;11.00;99.90;;;;;;4978283;28;20030;-83
2023/10/14 05:05:43;;;;;;;12.52;2.10;;;11.00;99.90;;;;;;4960889;28;20146;-83
2023/10/14 05:08:16;;;;;;;10.20;2.08;;;11.00;99.90;;;;;;4978021;28;20038;-82
2023/10/14 05:10:47;;;;;;;11.57;1.92;;;11.00;99.90;;;;;;4977309;28;20058;-78
2023/10/14 05:13:13;;;;;;;12.63;2.53;;;10.90;99.90;;;;;;4977846;28;20453;-83
2023/10/14 05:15:43;;;;;;;14.43;2.47;;;10.90;99.90;;;;;;4977996;28;20042;-84
2023/10/14 05:18:17;;;;;;;17.48;2.38;;;10.90;99.90;;;;;;4977940;28;20073;-82
2023/10/14 05:20:56;;;;;;;14.07;2.28;;;10.90;99.90;;;;;;4978088;28;20046;-83
2023/10/14 05:23:30;;;;;;;15.75;2.13;;;10.90;99.90;;;;;;4949043;28;20027;-82
2023/10/14 05:26:00;;;;;;;13.40;1.67;;;10.80;99.90;;;;;;4965810;28;20019;-81
2023/10/14 05:28:35;;;;;;;14.50;2.45;;;10.80;99.90;;;;;;4971303;28;20042;-81
2023/10/14 05:31:08;;;;;;;8.82;1.60;;;10.80;99.90;;;;;;4978606;28;20436;-82
2023/10/14 05:33:34;;;;;;;12.77;2.35;;;10.80;99.90;;;;;;4994869;28;20042;-82
2023/10/14 05:36:05;;;;;;;9.77;2.00;;;10.80;99.90;;;;;;4996986;28;20070;-80
2023/10/14 05:38:31;;;;;;;15.10;1.95;;;10.80;99.90;;;;;;4979186;28;20081;-83
2023/10/14 05:41:00;;;;;;;13.35;2.42;;;10.80;99.90;;;;;;4996835;28;20467;-81
2023/10/14 05:43:27;;;;;;;16.38;3.20;;;10.70;99.90;;;;;;4996999;28;20117;-82
2023/10/14 05:45:53;;;;;;;12.60;2.03;;;10.70;99.90;;;;;;4996379;28;20121;-79
2023/10/14 05:48:26;;;;;;;16.65;2.70;;;10.70;99.90;;;;;;4997213;28;20474;-83
2023/10/14 05:50:54;;;;;;;8.30;2.08;;;10.70;99.90;;;;;;4979320;28;20076;-84
2023/10/14 05:53:20;;;;;;;10.20;2.40;;;10.70;99.90;;;;;;4979095;28;20038;-83
2023/10/14 05:55:47;;;;;;;12.52;2.55;;;10.70;99.90;;;;;;4996897;28;20502;-82
2023/10/14 05:58:13;;;;;;;12.33;2.07;;;10.70;99.90;;;;;;4996733;28;20070;-82
2023/10/14 06:00:41;;;;;;;13.07;2.05;;;10.70;99.90;;;;;;4998134;28;20038;-81
2023/10/14 06:03:11;;;;;;;10.27;1.70;;;10.70;99.90;;;;;;4980450;28;20479;-83
2023/10/14 06:05:37;;;;;;;11.27;2.00;;;10.60;99.90;;;;;;4997848;28;20027;-81
2023/10/14 06:08:06;;;;;;;13.98;1.55;;;10.60;99.90;;;;;;4980884;28;20027;-83
2023/10/14 06:10:41;;;;;;;18.73;2.50;;;10.60;99.90;;;;;;4980445;28;20038;-83
2023/10/14 06:13:08;;;;;;;10.38;1.83;;;10.60;99.90;;;;;;4996804;28;20076;-83
2023/10/14 06:15:41;;;;;;;16.42;1.90;;;10.60;99.90;;;;;;4996458;28;20041;-82
2023/10/14 06:18:13;;;;;;;14.55;1.95;;;10.60;99.90;;;;;;4996352;28;20425;-84
2023/10/14 06:20:41;;;;;;;15.53;2.23;;;10.60;99.90;;;;;;4996671;28;20031;-83
2023/10/14 06:23:08;;;;;;;15.97;2.00;;;10.60;99.90;;;;;;4996212;28;20034;-81
2023/10/14 06:25:36;;;;;;;11.80;1.75;;;10.60;99.90;;;;;;4996331;28;20117;-81
2023/10/14 06:28:03;;;;;;;15.77;2.38;;;10.60;99.90;;;;;;4996242;28;20065;-83
2023/10/14 06:30:29;;;;;;;11.60;1.73;;;10.60;99.90;;;;;;4996284;28;20058;-84
2023/10/14 06:33:04;;;;;;;19.95;2.40;;;10.60;99.90;;;;;;4996698;28;20058;-83
2023/10/14 06:35:32;;;;;;;8.90;1.52;;;10.60;99.90;;;;;;4983359;28;20033;-84
2023/10/14 06:37:58;;;;;;;15.57;2.58;;;10.60;99.90;;;;;;5003376;28;20041;-83
2023/10/14 06:40:24;;;;;;;15.38;1.80;;;10.60;99.90;;;;;;4986512;28;20039;-83
2023/10/14 06:42:50;;;;;;;14.77;1.30;;;10.60;99.90;;;;;;4973393;28;20049;-83
2023/10/14 06:45:21;;;;;;;15.95;1.58;;;10.60;99.90;;;;;;4975693;28;20031;-83
2023/10/14 06:47:50;;;;;;;10.93;1.17;;;10.70;99.90;;;;;;4976092;28;20097;-81
2023/10/14 06:50:25;;;;;;;9.57;1.38;;;10.70;99.90;;;;;;4975886;28;20394;-83
2023/10/14 06:52:58;;;;;;;9.45;1.33;;;10.70;99.90;;;;;;4975982;28;20039;-83
2023/10/14 06:55:28;;;;;;;12.48;2.30;;;10.70;99.90;;;;;;4958885;28;20506;-83
2023/10/14 06:57:57;;;;;;;9.70;1.23;;;10.70;99.90;;;;;;4975974;28;20027;-81
2023/10/14 07:00:26;;;;;;;15.27;1.67;;;10.70;99.90;;;;;;4975826;28;20083;-83
2023/10/14 07:02:55;;;;;;;10.48;1.15;;;10.70;99.90;;;;;;4975509;28;20041;-83
2023/10/14 07:05:21;;;;;;;14.43;2.05;;;10.80;99.90;;;;;;4958037;28;20054;-83
2023/10/14 07:07:47;;;;;;;18.67;1.42;;;10.80;99.90;;;;;;4958638;28;20035;-83
2023/10/14 07:10:13;;;;;;;17.67;1.50;;;10.80;99.90;;;;;;4975350;28;20062;-84
2023/10/14 07:12:39;;;;;;;10.63;1.45;;;10.90;99.90;;;;;;4975279;28;20030;-83
2023/10/14 07:15:13;;;;;;;13.25;1.60;;;10.80;99.90;;;;;;4975730;28;20031;-83
2023/10/14 07:17:43;;;;;;;10.23;1.50;;;10.90;99.90;;;;;;4974894;28;20062;-83
2023/10/14 07:20:12;;;;;;;8.55;1.23;;;10.90;99.90;;;;;;4975478;28;20039;-83
2023/10/14 07:22:42;;;;;;;12.27;1.13;;;11.00;99.90;;;;;;4971161;28;20043;-83
2023/10/14 07:25:09;;;;;;;8.02;1.20;;;11.00;99.90;;;;;;4946959;28;20393;-82
2023/10/14 07:27:36;;;;;;;13.48;1.65;;;11.00;99.90;;;;;;4966282;28;20057;-83
2023/10/14 07:30:15;;;;;;;16.67;3.28;;;11.00;99.90;;;;;;4947264;28;20078;-82
2023/10/14 07:32:45;;;;;;;15.25;1.60;;;11.00;99.90;;;;;;4966368;28;20038;-83
2023/10/14 07:35:16;;;;;;;12.60;1.95;;;11.10;99.90;;;;;;4965743;28;20038;-81
2023/10/14 07:37:45;;;;;;;15.70;1.75;;;11.10;99.90;;;;;;4961967;28;20437;-80
2023/10/14 07:40:23;;;;;;;14.45;1.90;;;11.10;99.90;;;;;;4960651;28;20047;-82
2023/10/14 07:42:53;;;;;;;10.40;1.40;;;11.10;99.90;;;;;;4938449;29;20495;-82
2023/10/14 07:45:22;;;;;;;14.75;1.52;;;11.20;99.90;;;;;;4958403;28;20035;-78
2023/10/14 07:47:48;;;;;;;10.13;1.58;;;11.20;99.90;;;;;;4964749;28;20121;-79
2023/10/14 07:50:15;;;;;;;17.27;2.40;;;11.30;99.90;;;;;;4955490;29;20070;-77
2023/10/14 07:52:42;;;;;;;13.43;1.80;;;11.30;99.90;;;;;;4956172;29;20090;-80
2023/10/14 07:55:10;;;;;;;15.27;2.30;;;11.40;99.90;;;;;;4938768;29;20039;-79
2023/10/14 07:57:40;;;;;;;11.50;1.45;;;11.40;99.90;;;;;;4955740;29;20385;-78
2023/10/14 08:00:12;;;;;;;19.65;1.63;;;11.40;99.90;;;;;;4955473;29;20373;-81
2023/10/14 08:02:42;;;;;;;12.98;1.52;;;11.40;99.90;;;;;;4954958;29;20091;-80
2023/10/14 08:05:09;;;;;;;12.82;1.70;;;11.50;99.90;;;;;;4955575;29;20086;-80
2023/10/14 08:07:40;;;;;;;13.10;1.92;;;11.60;99.90;;;;;;4938737;29;20027;-81
2023/10/14 08:10:21;;;;;;;13.40;1.23;;;11.60;99.90;;;;;;4938165;29;20063;-82
2023/10/14 08:12:50;;;;;;;8.20;0.95;;;11.70;99.90;;;;;;4955080;29;20106;-81
2023/10/14 08:15:19;;;;;;;10.27;1.20;;;11.80;99.90;;;;;;4955150;29;20035;-81
2023/10/14 08:17:48;;;;;;;6.57;1.00;;;11.80;99.90;;;;;;4954748;29;20447;-80
2023/10/14 08:20:16;;;;;;;12.73;1.50;;;11.90;99.90;;;;;;4955221;29;20036;-82
2023/10/14 08:22:46;;;;;;;17.25;2.08;;;11.90;99.90;;;;;;4957962;28;20063;-83
2023/10/14 08:25:12;;;;;;;15.73;1.55;;;12.00;99.90;;;;;;4941437;29;20043;-81
2023/10/14 08:27:41;;;;;;;15.57;1.50;;;12.00;99.90;;;;;;4954877;28;20054;-79
2023/10/14 08:30:11;;;;;;;15.68;2.17;;;12.10;99.90;;;;;;4954870;29;20047;-80
2023/10/14 08:32:40;;;;;;;18.77;1.40;;;12.20;99.90;;;;;;4949927;28;20621;-82
2023/10/14 08:35:17;;;;;;;15.18;2.08;;;12.30;99.90;;;;;;4957422;28;20047;-82
2023/10/14 08:37:47;;;;;;;10.65;1.85;;;12.30;99.90;;;;;;4954820;29;20031;-81
2023/10/14 08:40:16;;;;;;;13.50;1.42;;;12.30;99.90;;;;;;4954848;29;20039;-78
2023/10/14 08:42:48;;;;;;;13.68;2.10;;;12.40;99.90;;;;;;4937511;29;20039;-80
2023/10/14 08:45:16;;;;;;;13.82;1.88;;;12.50;99.90;;;;;;4963804;28;20047;-81
2023/10/14 08:47:45;;;;;;;8.93;1.75;;;12.60;99.90;;;;;;4973770;28;20051;-80
2023/10/14 08:50:15;;;;;;;15.88;2.05;;;12.60;99.90;;;;;;4974502;28;20070;-80
2023/10/14 08:52:45;;;;;;;16.52;1.95;;;12.70;99.90;;;;;;4974112;28;20081;-81
2023/10/14 08:55:14;;;;;;;13.82;2.17;;;12.70;99.90;;;;;;4974172;28;20034;-80
2023/10/14 08:57:44;;;;;;;17.08;1.73;;;12.80;99.90;;;;;;4974012;28;20447;-81
2023/10/14 09:00:19;;;;;;;13.68;1.70;;;12.80;99.90;;;;;;4974214;28;20030;-82
2023/10/14 09:02:48;;;;;;;14.00;2.42;;;12.90;99.90;;;;;;4973861;28;20039;-82
2023/10/14 09:05:16;;;;;;;15.30;1.73;;;12.90;99.90;;;;;;4956416;28;20094;-82
2023/10/14 09:07:44;;;;;;;12.07;1.73;;;13.00;99.90;;;;;;4973256;28;20050;-80
2023/10/14 09:10:10;;;;;;;16.73;2.45;;;13.00;99.90;;;;;;4973687;28;20031;-81
2023/10/14 09:12:36;;;;;;;14.10;1.83;;;13.10;99.90;;;;;;4956556;28;20459;-80
2023/10/14 09:15:03;;;;;;;12.25;1.98;;;13.20;99.90;;;;;;4967510;28;20063;-79
2023/10/14 09:17:29;;;;;;;13.95;2.08;;;13.20;99.90;;;;;;4970685;28;20041;-82
2023/10/14 09:19:55;;;;;;;11.73;1.85;;;13.20;99.90;;;;;;4956089;28;20041;-80
2023/10/14 09:22:28;;;;;;;16.48;2.28;;;13.30;99.90;;;;;;4973745;28;20043;-81
2023/10/14 09:24:58;;;;;;;11.40;1.70;;;13.30;99.90;;;;;;4973938;28;20047;-80
2023/10/14 09:27:26;;;;;;;12.70;1.23;;;13.40;99.90;;;;;;4956384;28;20714;-82
2023/10/14 09:29:57;;;;;;;16.15;2.03;;;13.50;99.90;;;;;;4973499;28;20066;-82
2023/10/14 09:32:23;;;;;;;12.30;1.52;;;13.60;99.90;;;;;;4973292;28;20039;-81
2023/10/14 09:34:51;;;;;;;14.18;2.10;;;13.70;98.80;;;;;;4971960;28;20038;-82
2023/10/14 09:37:17;;;;;;;13.43;2.10;;;13.80;96.40;;;;;;4962029;28;20031;-79
2023/10/14 09:39:49;;;;;;;16.38;2.30;;;13.80;96.10;;;;;;4955190;28;20035;-79
2023/10/14 09:42:17;;;;;;;14.52;2.10;;;13.90;96.40;;;;;;4940722;29;20488;-80
2023/10/14 09:44:43;;;;;;;14.52;2.65;;;14.20;96.10;;;;;;4940600;29;20037;-81
2023/10/14 09:47:14;;;;;;;15.02;2.25;;;14.40;94.40;;;;;;4957653;29;20110;-81
2023/10/14 09:49:43;;;;;;;12.10;1.92;;;14.70;95.70;;;;;;4949702;29;20037;-81
2023/10/14 09:52:14;;;;;;;13.73;1.38;;;15.10;95.60;;;;;;4957507;29;20043;-78
2023/10/14 09:54:41;;;;;;;10.13;1.60;;;15.70;94.60;;;;;;4957552;29;20090;-80
2023/10/14 09:57:12;;;;;;;10.88;1.70;;;16.20;93.10;;;;;;4957695;29;20083;-83
2023/10/14 09:59:41;;;;;;;8.70;1.35;;;16.70;91.80;;;;;;4957197;29;20031;-80
2023/10/14 10:02:09;;;;;;;9.00;1.58;;;17.30;92.10;;;;;;4957506;29;20448;-80
2023/10/14 10:04:42;;;;;;;10.90;1.52;;;17.70;90.80;;;;;;4957697;29;20105;-80
2023/10/14 10:07:33;;;;;;;9.43;2.25;;;18.20;89.20;;;;;;4957320;28;20039;-80
2023/10/14 10:10:21;;;;;;;8.40;1.10;;;18.70;81.40;;;;;;4967041;28;20042;-82
2023/10/14 10:12:53;;;;;;;7.18;1.02;;;19.20;80.00;;;;;;4964285;28;20050;-80
2023/10/14 10:15:19;;;;;;;6.88;1.42;;;19.50;76.00;;;;;;4956308;28;20047;-82
2023/10/14 10:18:01;;;;;;;9.65;1.10;;;19.40;71.80;;;;;;4956693;29;20109;-81
2023/10/14 10:20:29;;;;;;;9.82;1.05;;;18.90;66.40;;;;;;4962059;28;20098;-80
2023/10/14 10:22:56;;;;;;;7.97;0.90;;;18.30;67.30;;;;;;4965769;28;20038;-79
2023/10/14 10:25:37;;;;;;;7.50;1.08;;;17.70;66.00;;;;;;4967016;28;20030;-79
2023/10/14 10:28:28;;;;;;;4.70;0.88;;;16.90;68.40;;;;;;4958439;28;20042;-83
2023/10/14 10:31:03;;;;;;;7.97;0.80;;;16.10;73.10;;;;;;4976534;28;20066;-81
2023/10/14 10:33:50;;;;;;;5.78;0.60;;;15.60;76.10;;;;;;4973740;28;20041;-81
2023/10/14 10:36:30;;;;;;;7.97;1.13;;;15.10;77.80;;;;;;4956740;29;20039;-79
2023/10/14 10:39:16;;;;;;;8.35;1.10;;;14.70;79.00;;;;;;4956589;28;20047;-79
2023/10/14 10:41:42;;;;;;;9.20;1.02;;;14.50;79.80;;;;;;4956264;28;20114;-80
2023/10/14 10:44:11;;;;;;;7.07;1.02;;;14.50;81.60;;;;;;4956564;28;20114;-81
2023/10/14 10:46:44;;;;;;;5.03;0.95;;;15.00;83.60;;;;;;4942445;28;20062;-83
2023/10/14 10:49:12;;;;;;;6.80;1.10;;;15.80;85.00;;;;;;4967478;28;20369;-83
2023/10/14 10:52:12;;;;;;;5.32;1.05;;;16.60;85.40;;;;;;4965513;28;20031;-80
2023/10/14 10:54:42;;;;;;;6.72;1.30;;;17.50;85.70;;;;;;4967349;28;20046;-79
2023/10/14 10:57:07;;;;;;;7.60;1.75;;;18.40;86.10;;;;;;4965125;28;20110;-83
2023/10/14 10:59:36;;;;;;;6.00;1.17;;;19.00;83.20;;;;;;4966351;28;20134;-80
2023/10/14 11:02:02;;;;;;;7.38;1.25;;;19.40;81.00;;;;;;4948581;28;20435;-80
2023/10/14 11:04:30;;;;;;;8.13;1.40;;;19.20;75.00;;;;;;4964170;28;20023;-79
2023/10/14 11:06:56;;;;;;;6.80;1.30;;;19.30;75.90;;;;;;4966699;28;20513;-81
2023/10/14 11:09:21;;;;;;;6.63;1.10;;;19.50;76.00;;;;;;4965403;28;20067;-82
2023/10/14 11:11:48;;;;;;;10.32;1.23;;;20.00;75.00;;;;;;4975593;28;20487;-80
2023/10/14 11:14:18;;;;;;;8.05;1.17;;;20.50;71.20;;;;;;4975556;28;20035;-79
2023/10/14 11:16:44;;;;;;;8.85;1.25;;;20.80;69.70;;;;;;4962526;28;20042;-80
2023/10/14 11:19:10;;;;;;;7.80;1.40;;;20.80;66.30;;;;;;4958116;28;20488;-79
2023/10/14 11:21:39;;;;;;;7.72;1.73;;;20.30;63.00;;;;;;4958151;29;20072;-79
2023/10/14 11:24:08;;;;;;;9.75;1.42;;;19.70;64.50;;;;;;4941011;29;20042;-81
2023/10/14 11:26:36;;;;;;;8.07;1.52;;;18.90;65.60;;;;;;4955800;29;20035;-79
2023/10/14 11:29:03;;;;;;;8.07;1.35;;;18.20;66.50;;;;;;4938693;29;20073;-81
2023/10/14 11:31:30;;;;;;;8.23;1.52;;;17.60;68.30;;;;;;4938204;29;20078;-80
2023/10/14 11:34:01;;;;;;;10.82;1.10;;;17.10;68.20;;;;;;4955530;28;20040;-79
2023/10/14 11:36:27;;;;;;;8.10;1.05;;;16.80;68.90;;;;;;4955745;29;20035;-79
2023/10/14 11:38:58;;;;;;;9.30;1.08;;;16.50;68.20;;;;;;4955361;28;20039;-79
2023/10/14 11:41:26;;;;;;;3.90;0.63;;;16.20;66.10;;;;;;4954987;29;20391;-79
2023/10/14 11:43:52;;;;;;;4.63;0.80;;;15.80;65.90;;;;;;4957282;28;20540;-79
2023/10/14 11:46:17;;;;;;;3.63;0.60;;;15.60;68.10;;;;;;4938742;29;20036;-79
2023/10/14 11:48:49;;;;;;;4.60;0.80;;;15.50;69.80;;;;;;4955624;28;20075;-80
2023/10/14 11:51:22;;;;;;;5.45;0.60;;;15.80;71.90;;;;;;4955349;29;20365;-80
2023/10/14 11:53:52;;;;;;;7.00;1.05;;;16.60;73.30;;;;;;4955777;28;20043;-81
2023/10/14 11:56:19;;;;;;;9.27;1.60;;;17.00;71.50;;;;;;4958671;28;20079;-80
2023/10/14 11:58:45;;;;;;;4.78;0.80;;;17.40;71.80;;;;;;4948487;28;20391;-81
2023/10/14 12:01:12;;;;;;;7.65;1.30;;;17.80;70.90;;;;;;4963339;28;20035;-81
2023/10/14 12:03:38;;;;;;;10.82;1.48;;;17.70;69.30;;;;;;4965676;28;20114;-80
2023/10/14 12:06:07;;;;;;;10.60;1.17;;;17.70;70.00;;;;;;4962841;28;20514;-80
2023/10/14 12:08:39;;;;;;;7.97;0.95;;;17.80;71.40;;;;;;4959179;28;20049;-79
2023/10/14 12:11:14;;;;;;;6.63;1.10;;;18.10;71.70;;;;;;4954408;29;20050;-79
2023/10/14 12:13:40;;;;;;;8.82;1.63;;;18.30;71.90;;;;;;4954909;28;20043;-79
2023/10/14 12:16:07;;;;;;;8.88;1.65;;;18.80;70.70;;;;;;4937921;29;20039;-81
2023/10/14 12:18:37;;;;;;;6.47;0.98;;;19.30;69.10;;;;;;4937703;29;20039;-80
2023/10/14 12:21:05;;;;;;;7.63;1.02;;;20.00;68.70;;;;;;4955140;29;20448;-80
2023/10/14 12:23:31;;;;;;;6.85;1.00;;;20.80;67.60;;;;;;4955108;29;20043;-80
2023/10/14 12:25:58;;;;;;;7.72;1.38;;;21.40;63.00;;;;;;4963640;28;20043;-80
2023/10/14 12:28:30;;;;;;;7.13;1.40;;;21.50;60.10;;;;;;4973953;28;20098;-80
2023/10/14 12:31:02;;;;;;;8.18;1.30;;;21.10;59.50;;;;;;4973742;28;20038;-80
2023/10/14 12:33:32;;;;;;;8.30;1.30;;;21.10;61.50;;;;;;4974287;28;20515;-82
2023/10/14 12:36:05;;;;;;;7.35;1.00;;;21.50;62.30;;;;;;4973855;28;20046;-80
2023/10/14 12:38:32;;;;;;;7.18;1.25;;;21.70;60.10;;;;;;4956871;28;20049;-81
2023/10/14 12:41:01;;;;;;;7.10;0.98;;;22.00;60.20;;;;;;4973285;28;20050;-80
2023/10/14 12:43:28;;;;;;;8.43;0.90;;;22.10;57.60;;;;;;4973921;28;20030;-81
2023/10/14 12:46:09;;;;;;;5.63;1.10;;;21.60;55.50;;;;;;4971383;28;21085;-80
2023/10/14 12:48:45;;;;;;;5.47;0.98;;;20.90;56.30;;;;;;4954818;29;20031;-81
2023/10/14 12:51:21;;;;;;;8.20;1.58;;;20.60;57.80;;;;;;4954931;28;20055;-80
2023/10/14 12:53:47;;;;;;;7.32;1.38;;;20.90;58.10;;;;;;4954338;29;20043;-80
2023/10/14 12:56:22;;;;;;;8.75;1.23;;;21.30;58.10;;;;;;4960148;28;20034;-80
2023/10/14 12:58:49;;;;;;;7.72;1.00;;;21.80;57.60;;;;;;4953987;29;20034;-81
2023/10/14 13:01:17;;;;;;;7.07;1.10;;;22.30;57.10;;;;;;4936844;29;20126;-81
2023/10/14 13:03:53;;;;;;;7.03;1.20;;;22.70;56.40;;;;;;4953598;29;20058;-80
2023/10/14 13:06:24;;;;;;;9.15;1.45;;;23.00;53.50;;;;;;4954282;28;20190;-82
2023/10/14 13:08:51;;;;;;;5.40;1.00;;;23.20;50.50;;;;;;4954204;28;20036;-81
2023/10/14 13:11:17;;;;;;;3.28;0.63;;;23.40;49.60;;;;;;4954705;29;20511;-82
2023/10/14 13:13:50;;;;;;;8.10;1.00;;;23.60;48.80;;;;;;4954308;28;20047;-82
2023/10/14 13:16:18;;;;;;;10.05;1.40;;;23.70;48.30;;;;;;4957556;29;20096;-82
2023/10/14 13:18:50;;;;;;;6.10;0.95;;;23.80;46.70;;;;;;4958325;29;20122;-81
2023/10/14 13:21:19;;;;;;;5.32;0.80;;;23.70;47.00;;;;;;4958236;28;20099;-81
2023/10/14 13:23:49;;;;;;;4.40;0.70;;;23.40;46.60;;;;;;4957947;28;20046;-80
2023/10/14 13:26:15;;;;;;;7.22;1.10;;;22.90;49.10;;;;;;4957935;28;20046;-82
2023/10/14 13:28:45;;;;;;;7.20;0.88;;;22.40;51.60;;;;;;4957979;29;20036;-81